sensor_id;sensor_type;location;lat;lon;timestamp;temperature;humidity
5429;DHT22;2737;52.386;9.980;2023-02-28T00:00:30;-0.40;99.90
5429;DHT22;2737;52.386;9.980;2023-02-28T00:02:58;-0.30;99.90
5429;DHT22;2737;52.386;9.980;2023-02-28T00:05:26;-0.30;99.90
5429;DHT22;2737;52.386;9.980;2023-02-28T00:07:55;-0.30;99.90
5429;DHT22;2737;52.386;9.980;2023-02-28T00:10:24;-0.20;99.90
5429;DHT22;2737;52.386;9.980;2023-02-28T00:12:54;-0.20;99.90
5429;DHT22;2737;52.386;9.980;2023-02-28T00:15:23;-0.20;99.90
5429;DHT22;2737;52.386;9.980;2023-02-28T00:17:50;-0.20;99.90
5429;DHT22;2737;52.386;9.980;2023-02-28T00:20:17;-0.20;99.90
5429;DHT22;2737;52.386;9.980;2023-02-28T00:22:46;-0.30;99.90
5429;DHT22;2737;52.386;9.980;2023-02-28T00:25:17;-0.20;99.90
5429;DHT22;2737;52.386;9.980;2023-02-28T00:27:45;-0.20;99.90
5429;DHT22;2737;52.386;9.980;2023-02-28T00:30:15;-0.20;99.90
5429;DHT22;2737;52.386;9.980;2023-02-28T00:32:43;-0.20;99.90
5429;DHT22;2737;52.386;9.980;2023-02-28T00:35:11;-0.20;99.90
5429;DHT22;2737;52.386;9.980;2023-02-28T00:37:38;-0.20;99.90
5429;DHT22;2737;52.386;9.980;2023-02-28T00:40:07;-0.20;99.90
5429;DHT22;2737;52.386;9.980;2023-02-28T00:42:36;-0.40;99.90
5429;DHT22;2737;52.386;9.980;2023-02-28T00:45:04;-0.40;99.90
5429;DHT22;2737;52.386;9.980;2023-02-28T00:47:32;-0.40;99.90
5429;DHT22;2737;52.386;9.980;2023-02-28T00:49:59;-0.40;99.90
5429;DHT22;2737;52.386;9.980;2023-02-28T00:52:26;-0.40;99.90
5429;DHT22;2737;52.386;9.980;2023-02-28T00:54:53;-0.40;99.90
5429;DHT22;2737;52.386;9.980;2023-02-28T00:57:21;-0.40;99.90
5429;DHT22;2737;52.386;9.980;2023-02-28T00:59:49;-0.40;99.90
5429;DHT22;2737;52.386;9.980;2023-02-28T01:02:16;-0.50;99.90
5429;DHT22;2737;52.386;9.980;2023-02-28T01:04:46;-0.60;99.90
5429;DHT22;2737;52.386;9.980;2023-02-28T01:07:13;-0.70;99.90
5429;DHT22;2737;52.386;9.980;2023-02-28T01:09:40;-0.70;99.90
5429;DHT22;2737;52.386;9.980;2023-02-28T01:12:08;-0.70;99.90
5429;DHT22;2737;52.386;9.980;2023-02-28T01:14:35;-0.70;99.90
5429;DHT22;2737;52.386;9.980;2023-02-28T01:17:04;-0.70;99.90
5429;DHT22;2737;52.386;9.980;2023-02-28T01:19:31;-0.70;99.90
5429;DHT22;2737;52.386;9.980;2023-02-28T01:22:00;-0.80;99.90
5429;DHT22;2737;52.386;9.980;2023-02-28T01:24:28;-0.70;99.90
5429;DHT22;2737;52.386;9.980;2023-02-28T01:26:55;-0.70;99.90
5429;DHT22;2737;52.386;9.980;2023-02-28T01:29:22;-0.80;99.90
5429;DHT22;2737;52.386;9.980;2023-02-28T01:31:49;-0.80;99.90
5429;DHT22;2737;52.386;9.980;2023-02-28T01:34:17;-0.80;99.90
5429;DHT22;2737;52.386;9.980;2023-02-28T01:36:45;-0.80;99.90
5429;DHT22;2737;52.386;9.980;2023-02-28T01:39:12;-0.90;99.90
5429;DHT22;2737;52.386;9.980;2023-02-28T01:41:39;-0.90;99.90
5429;DHT22;2737;52.386;9.980;2023-02-28T01:47:12;-1.00;99.90
5429;DHT22;2737;52.386;9.980;2023-02-28T01:49:41;-1.20;99.90
5429;DHT22;2737;52.386;9.980;2023-02-28T01:52:10;-1.30;99.90
5429;DHT22;2737;52.386;9.980;2023-02-28T01:54:40;-1.40;99.90
5429;DHT22;2737;52.386;9.980;2023-02-28T01:57:11;-1.50;99.90
5429;DHT22;2737;52.386;9.980;2023-02-28T01:59:45;-1.50;99.90
5429;DHT22;2737;52.386;9.980;2023-02-28T02:02:17;-1.50;99.90
5429;DHT22;2737;52.386;9.980;2023-02-28T02:04:51;-1.50;99.90
5429;DHT22;2737;52.386;9.980;2023-02-28T02:07:20;-1.60;99.90
5429;DHT22;2737;52.386;9.980;2023-02-28T02:09:48;-1.60;99.90
5429;DHT22;2737;52.386;9.980;2023-02-28T02:12:24;-1.50;99.90
5429;DHT22;2737;52.386;9.980;2023-02-28T02:15:00;-1.60;99.90
5429;DHT22;2737;52.386;9.980;2023-02-28T02:17:35;-1.70;99.90
5429;DHT22;2737;52.386;9.980;2023-02-28T02:23:26;-1.70;99.90
5429;DHT22;2737;52.386;9.980;2023-02-28T02:25:59;-1.70;99.90
5429;DHT22;2737;52.386;9.980;2023-02-28T02:29:03;-1.80;99.90
5429;DHT22;2737;52.386;9.980;2023-02-28T02:32:01;-1.70;99.90
5429;DHT22;2737;52.386;9.980;2023-02-28T02:34:42;-1.80;99.90
5429;DHT22;2737;52.386;9.980;2023-02-28T02:37:20;-1.90;99.90
5429;DHT22;2737;52.386;9.980;2023-02-28T02:39:53;-1.90;99.90
5429;DHT22;2737;52.386;9.980;2023-02-28T02:42:25;-1.90;99.90
5429;DHT22;2737;52.386;9.980;2023-02-28T02:44:59;-2.00;99.90
5429;DHT22;2737;52.386;9.980;2023-02-28T02:47:30;-2.00;99.90
5429;DHT22;2737;52.386;9.980;2023-02-28T02:50:02;-2.00;99.90
5429;DHT22;2737;52.386;9.980;2023-02-28T02:52:36;-2.00;99.90
5429;DHT22;2737;52.386;9.980;2023-02-28T02:55:04;-2.00;99.90
5429;DHT22;2737;52.386;9.980;2023-02-28T02:57:35;-2.00;99.90
5429;DHT22;2737;52.386;9.980;2023-02-28T03:00:04;-2.10;99.90
5429;DHT22;2737;52.386;9.980;2023-02-28T03:02:35;-2.00;99.90
5429;DHT22;2737;52.386;9.980;2023-02-28T03:05:08;-2.00;99.90
5429;DHT22;2737;52.386;9.980;2023-02-28T03:07:38;-2.10;99.90
5429;DHT22;2737;52.386;9.980;2023-02-28T03:10:27;-2.10;99.90
5429;DHT22;2737;52.386;9.980;2023-02-28T03:13:06;-2.10;99.90
5429;DHT22;2737;52.386;9.980;2023-02-28T03:15:43;-2.10;99.90
5429;DHT22;2737;52.386;9.980;2023-02-28T03:18:22;-2.10;99.90
5429;DHT22;2737;52.386;9.980;2023-02-28T03:21:00;-2.10;99.90
5429;DHT22;2737;52.386;9.980;2023-02-28T03:23:38;-2.10;99.90
5429;DHT22;2737;52.386;9.980;2023-02-28T03:26:16;-2.10;99.90
5429;DHT22;2737;52.386;9.980;2023-02-28T03:28:52;-2.20;99.90
5429;DHT22;2737;52.386;9.980;2023-02-28T03:31:24;-2.10;99.90
5429;DHT22;2737;52.386;9.980;2023-02-28T03:33:58;-2.20;99.90
5429;DHT22;2737;52.386;9.980;2023-02-28T03:36:30;-2.10;99.90
5429;DHT22;2737;52.386;9.980;2023-02-28T03:39:03;-2.20;99.90
5429;DHT22;2737;52.386;9.980;2023-02-28T03:41:35;-2.20;99.90
5429;DHT22;2737;52.386;9.980;2023-02-28T03:44:10;-2.10;99.90
5429;DHT22;2737;52.386;9.980;2023-02-28T03:46:44;-2.10;99.90
5429;DHT22;2737;52.386;9.980;2023-02-28T03:49:16;-2.10;99.90
5429;DHT22;2737;52.386;9.980;2023-02-28T03:51:46;-2.10;99.90
5429;DHT22;2737;52.386;9.980;2023-02-28T03:54:15;-2.10;99.90
5429;DHT22;2737;52.386;9.980;2023-02-28T03:56:48;-2.10;99.90
5429;DHT22;2737;52.386;9.980;2023-02-28T03:59:20;-2.10;99.90
5429;DHT22;2737;52.386;9.980;2023-02-28T04:01:49;-2.00;99.90
5429;DHT22;2737;52.386;9.980;2023-02-28T04:04:17;-2.00;99.90
5429;DHT22;2737;52.386;9.980;2023-02-28T04:06:49;-2.00;99.90
5429;DHT22;2737;52.386;9.980;2023-02-28T04:09:16;-2.00;99.90
5429;DHT22;2737;52.386;9.980;2023-02-28T04:11:45;-2.00;99.90
5429;DHT22;2737;52.386;9.980;2023-02-28T04:14:13;-2.00;99.90
5429;DHT22;2737;52.386;9.980;2023-02-28T04:16:41;-2.10;99.90
5429;DHT22;2737;52.386;9.980;2023-02-28T04:19:10;-2.00;99.90
5429;DHT22;2737;52.386;9.980;2023-02-28T04:21:40;-2.00;99.90
5429;DHT22;2737;52.386;9.980;2023-02-28T04:24:10;-2.10;99.90
5429;DHT22;2737;52.386;9.980;2023-02-28T04:26:41;-2.00;99.90
5429;DHT22;2737;52.386;9.980;2023-02-28T04:29:10;-2.10;99.90
5429;DHT22;2737;52.386;9.980;2023-02-28T04:31:38;-2.10;99.90
5429;DHT22;2737;52.386;9.980;2023-02-28T04:34:05;-2.10;99.90
5429;DHT22;2737;52.386;9.980;2023-02-28T04:36:32;-2.10;99.90
5429;DHT22;2737;52.386;9.980;2023-02-28T04:38:59;-2.20;99.90
5429;DHT22;2737;52.386;9.980;2023-02-28T04:41:28;-2.10;99.90
5429;DHT22;2737;52.386;9.980;2023-02-28T04:43:55;-2.10;99.90
5429;DHT22;2737;52.386;9.980;2023-02-28T04:46:23;-2.10;99.90
5429;DHT22;2737;52.386;9.980;2023-02-28T04:48:50;-2.20;99.90
5429;DHT22;2737;52.386;9.980;2023-02-28T04:51:18;-2.30;99.90
5429;DHT22;2737;52.386;9.980;2023-02-28T04:53:46;-2.30;99.90
5429;DHT22;2737;52.386;9.980;2023-02-28T04:56:15;-2.30;99.90
5429;DHT22;2737;52.386;9.980;2023-02-28T04:58:44;-2.20;99.90
5429;DHT22;2737;52.386;9.980;2023-02-28T05:01:20;-2.30;99.90
5429;DHT22;2737;52.386;9.980;2023-02-28T05:03:49;-2.20;99.90
5429;DHT22;2737;52.386;9.980;2023-02-28T05:06:16;-2.30;99.90
5429;DHT22;2737;52.386;9.980;2023-02-28T05:08:43;-2.30;99.90
5429;DHT22;2737;52.386;9.980;2023-02-28T05:11:16;-2.30;99.90
5429;DHT22;2737;52.386;9.980;2023-02-28T05:13:44;-2.40;99.90
5429;DHT22;2737;52.386;9.980;2023-02-28T05:16:12;-2.40;99.90
5429;DHT22;2737;52.386;9.980;2023-02-28T05:18:39;-2.40;99.90
5429;DHT22;2737;52.386;9.980;2023-02-28T05:21:23;-2.50;99.90
5429;DHT22;2737;52.386;9.980;2023-02-28T05:23:51;-2.50;99.90
5429;DHT22;2737;52.386;9.980;2023-02-28T05:26:19;-2.50;99.90
5429;DHT22;2737;52.386;9.980;2023-02-28T05:28:47;-2.60;99.90
5429;DHT22;2737;52.386;9.980;2023-02-28T05:31:14;-2.60;99.90
5429;DHT22;2737;52.386;9.980;2023-02-28T05:33:42;-2.60;99.90
5429;DHT22;2737;52.386;9.980;2023-02-28T05:36:09;-2.60;99.90
5429;DHT22;2737;52.386;9.980;2023-02-28T05:38:36;-2.60;99.90
5429;DHT22;2737;52.386;9.980;2023-02-28T05:41:05;-2.60;99.90
5429;DHT22;2737;52.386;9.980;2023-02-28T05:43:33;-2.60;99.90
5429;DHT22;2737;52.386;9.980;2023-02-28T05:46:04;-2.60;99.90
5429;DHT22;2737;52.386;9.980;2023-02-28T05:48:31;-2.60;99.90
5429;DHT22;2737;52.386;9.980;2023-02-28T05:50:58;-2.70;99.90
5429;DHT22;2737;52.386;9.980;2023-02-28T05:53:25;-2.70;99.90
5429;DHT22;2737;52.386;9.980;2023-02-28T05:55:53;-2.90;99.90
5429;DHT22;2737;52.386;9.980;2023-02-28T05:58:20;-3.00;99.90
5429;DHT22;2737;52.386;9.980;2023-02-28T06:00:47;-3.00;99.90
5429;DHT22;2737;52.386;9.980;2023-02-28T06:03:16;-3.00;99.90
5429;DHT22;2737;52.386;9.980;2023-02-28T06:05:43;-3.10;99.90
5429;DHT22;2737;52.386;9.980;2023-02-28T06:08:10;-3.10;99.90
5429;DHT22;2737;52.386;9.980;2023-02-28T06:10:37;-3.10;99.90
5429;DHT22;2737;52.386;9.980;2023-02-28T06:13:04;-3.20;99.90
5429;DHT22;2737;52.386;9.980;2023-02-28T06:15:32;-3.20;99.90
5429;DHT22;2737;52.386;9.980;2023-02-28T06:17:59;-3.20;99.90
5429;DHT22;2737;52.386;9.980;2023-02-28T06:20:28;-3.20;99.90
5429;DHT22;2737;52.386;9.980;2023-02-28T06:22:56;-3.20;99.90
5429;DHT22;2737;52.386;9.980;2023-02-28T06:25:24;-3.10;99.90
5429;DHT22;2737;52.386;9.980;2023-02-28T06:27:51;-3.10;99.90
5429;DHT22;2737;52.386;9.980;2023-02-28T06:30:18;-3.10;99.90
5429;DHT22;2737;52.386;9.980;2023-02-28T06:32:50;-3.20;99.90
5429;DHT22;2737;52.386;9.980;2023-02-28T06:35:18;-3.10;99.90
5429;DHT22;2737;52.386;9.980;2023-02-28T06:37:47;-3.00;99.90
5429;DHT22;2737;52.386;9.980;2023-02-28T06:40:14;-3.10;99.90
5429;DHT22;2737;52.386;9.980;2023-02-28T06:42:41;-3.10;99.90
5429;DHT22;2737;52.386;9.980;2023-02-28T06:45:09;-2.90;99.90
5429;DHT22;2737;52.386;9.980;2023-02-28T06:47:37;-2.80;99.90
5429;DHT22;2737;52.386;9.980;2023-02-28T06:50:06;-2.70;99.90
5429;DHT22;2737;52.386;9.980;2023-02-28T06:52:33;-2.60;99.90
5429;DHT22;2737;52.386;9.980;2023-02-28T06:55:04;-2.60;99.90
5429;DHT22;2737;52.386;9.980;2023-02-28T06:57:32;-2.50;99.90
5429;DHT22;2737;52.386;9.980;2023-02-28T07:00:02;-2.50;99.90
5429;DHT22;2737;52.386;9.980;2023-02-28T07:02:31;-2.40;99.90
5429;DHT22;2737;52.386;9.980;2023-02-28T07:04:58;-2.30;99.90
5429;DHT22;2737;52.386;9.980;2023-02-28T07:07:25;-2.20;99.90
5429;DHT22;2737;52.386;9.980;2023-02-28T07:09:52;-2.10;99.90
5429;DHT22;2737;52.386;9.980;2023-02-28T07:12:20;-2.10;99.90
5429;DHT22;2737;52.386;9.980;2023-02-28T07:14:47;-2.00;99.90
5429;DHT22;2737;52.386;9.980;2023-02-28T07:17:14;-1.90;99.90
5429;DHT22;2737;52.386;9.980;2023-02-28T07:19:41;-1.80;99.90
5429;DHT22;2737;52.386;9.980;2023-02-28T07:22:09;-1.70;99.90
5429;DHT22;2737;52.386;9.980;2023-02-28T07:24:36;-1.70;99.90
5429;DHT22;2737;52.386;9.980;2023-02-28T07:27:03;-1.70;99.90
5429;DHT22;2737;52.386;9.980;2023-02-28T07:29:32;-1.60;99.90
5429;DHT22;2737;52.386;9.980;2023-02-28T07:31:59;-1.50;99.90
5429;DHT22;2737;52.386;9.980;2023-02-28T07:34:26;-1.30;99.90
5429;DHT22;2737;52.386;9.980;2023-02-28T07:36:53;-1.20;99.90
5429;DHT22;2737;52.386;9.980;2023-02-28T07:39:21;-1.10;99.90
5429;DHT22;2737;52.386;9.980;2023-02-28T07:41:48;-1.00;99.90
5429;DHT22;2737;52.386;9.980;2023-02-28T07:44:15;-0.90;99.90
5429;DHT22;2737;52.386;9.980;2023-02-28T07:46:44;-0.70;99.90
5429;DHT22;2737;52.386;9.980;2023-02-28T07:49:11;-0.60;99.90
5429;DHT22;2737;52.386;9.980;2023-02-28T07:51:38;-0.50;99.90
5429;DHT22;2737;52.386;9.980;2023-02-28T07:54:05;-0.50;99.90
5429;DHT22;2737;52.386;9.980;2023-02-28T07:56:32;-0.40;99.90
5429;DHT22;2737;52.386;9.980;2023-02-28T07:58:59;-0.30;99.90
5429;DHT22;2737;52.386;9.980;2023-02-28T08:01:27;-0.30;99.90
5429;DHT22;2737;52.386;9.980;2023-02-28T08:03:55;-0.20;99.90
5429;DHT22;2737;52.386;9.980;2023-02-28T08:06:25;-0.10;99.90
5429;DHT22;2737;52.386;9.980;2023-02-28T08:08:53;0.00;99.90
5429;DHT22;2737;52.386;9.980;2023-02-28T08:11:21;0.00;99.90
5429;DHT22;2737;52.386;9.980;2023-02-28T08:13:48;0.10;99.90
5429;DHT22;2737;52.386;9.980;2023-02-28T08:16:16;0.20;99.90
5429;DHT22;2737;52.386;9.980;2023-02-28T08:18:47;0.20;99.90
5429;DHT22;2737;52.386;9.980;2023-02-28T08:21:16;0.20;99.90
5429;DHT22;2737;52.386;9.980;2023-02-28T08:23:43;0.30;99.90
5429;DHT22;2737;52.386;9.980;2023-02-28T08:26:10;0.40;99.90
5429;DHT22;2737;52.386;9.980;2023-02-28T08:28:37;0.50;99.90
5429;DHT22;2737;52.386;9.980;2023-02-28T08:31:08;0.50;99.90
5429;DHT22;2737;52.386;9.980;2023-02-28T08:33:36;0.60;99.90
5429;DHT22;2737;52.386;9.980;2023-02-28T08:36:05;0.70;99.90
5429;DHT22;2737;52.386;9.980;2023-02-28T08:38:34;0.80;99.90
5429;DHT22;2737;52.386;9.980;2023-02-28T08:41:03;0.80;99.90
5429;DHT22;2737;52.386;9.980;2023-02-28T08:43:31;0.90;99.90
5429;DHT22;2737;52.386;9.980;2023-02-28T08:45:58;1.00;99.90
5429;DHT22;2737;52.386;9.980;2023-02-28T08:48:26;1.00;99.90
5429;DHT22;2737;52.386;9.980;2023-02-28T08:50:57;1.10;99.90
5429;DHT22;2737;52.386;9.980;2023-02-28T08:53:24;1.20;99.90
5429;DHT22;2737;52.386;9.980;2023-02-28T08:56:00;1.20;99.90
5429;DHT22;2737;52.386;9.980;2023-02-28T08:58:28;1.30;99.90
5429;DHT22;2737;52.386;9.980;2023-02-28T09:00:55;1.30;99.90
5429;DHT22;2737;52.386;9.980;2023-02-28T09:03:23;1.40;99.90
5429;DHT22;2737;52.386;9.980;2023-02-28T09:05:58;1.40;99.90
5429;DHT22;2737;52.386;9.980;2023-02-28T09:08:27;1.40;99.90
5429;DHT22;2737;52.386;9.980;2023-02-28T09:10:56;1.50;99.90
5429;DHT22;2737;52.386;9.980;2023-02-28T09:13:25;1.50;99.90
5429;DHT22;2737;52.386;9.980;2023-02-28T09:15:53;1.60;99.90
5429;DHT22;2737;52.386;9.980;2023-02-28T09:18:20;1.70;99.90
5429;DHT22;2737;52.386;9.980;2023-02-28T09:20:47;1.70;99.90
5429;DHT22;2737;52.386;9.980;2023-02-28T09:23:16;1.80;99.90
5429;DHT22;2737;52.386;9.980;2023-02-28T09:25:47;1.80;99.90
5429;DHT22;2737;52.386;9.980;2023-02-28T09:28:14;1.80;99.90
5429;DHT22;2737;52.386;9.980;2023-02-28T09:30:45;1.90;99.90
5429;DHT22;2737;52.386;9.980;2023-02-28T09:33:12;1.90;99.90
5429;DHT22;2737;52.386;9.980;2023-02-28T09:35:39;2.00;99.90
5429;DHT22;2737;52.386;9.980;2023-02-28T09:38:07;2.00;99.90
5429;DHT22;2737;52.386;9.980;2023-02-28T09:40:36;2.10;99.90
5429;DHT22;2737;52.386;9.980;2023-02-28T09:43:04;2.10;99.90
5429;DHT22;2737;52.386;9.980;2023-02-28T09:45:34;2.10;99.90
5429;DHT22;2737;52.386;9.980;2023-02-28T09:48:07;2.10;99.90
5429;DHT22;2737;52.386;9.980;2023-02-28T09:50:38;2.20;99.90
5429;DHT22;2737;52.386;9.980;2023-02-28T09:53:15;2.30;99.90
5429;DHT22;2737;52.386;9.980;2023-02-28T09:55:49;2.30;99.90
5429;DHT22;2737;52.386;9.980;2023-02-28T09:58:20;2.30;99.90
5429;DHT22;2737;52.386;9.980;2023-02-28T10:00:56;2.40;99.90
5429;DHT22;2737;52.386;9.980;2023-02-28T10:03:30;2.50;99.90
5429;DHT22;2737;52.386;9.980;2023-02-28T10:06:04;2.60;99.90
5429;DHT22;2737;52.386;9.980;2023-02-28T10:08:36;2.50;99.90
5429;DHT22;2737;52.386;9.980;2023-02-28T10:11:09;2.60;99.90
5429;DHT22;2737;52.386;9.980;2023-02-28T10:13:46;2.70;99.90
5429;DHT22;2737;52.386;9.980;2023-02-28T10:16:20;2.70;99.90
5429;DHT22;2737;52.386;9.980;2023-02-28T10:19:02;2.70;99.90
5429;DHT22;2737;52.386;9.980;2023-02-28T10:21:35;2.70;99.90
5429;DHT22;2737;52.386;9.980;2023-02-28T10:24:07;2.80;99.90
5429;DHT22;2737;52.386;9.980;2023-02-28T10:26:38;2.80;99.90
5429;DHT22;2737;52.386;9.980;2023-02-28T10:29:07;2.90;99.90
5429;DHT22;2737;52.386;9.980;2023-02-28T10:31:34;3.00;99.90
5429;DHT22;2737;52.386;9.980;2023-02-28T10:34:03;2.90;99.90
5429;DHT22;2737;52.386;9.980;2023-02-28T10:36:32;3.00;99.90
5429;DHT22;2737;52.386;9.980;2023-02-28T10:38:59;3.10;99.90
5429;DHT22;2737;52.386;9.980;2023-02-28T10:41:28;3.10;99.90
5429;DHT22;2737;52.386;9.980;2023-02-28T10:44:14;3.10;99.90
5429;DHT22;2737;52.386;9.980;2023-02-28T10:46:42;3.20;99.90
5429;DHT22;2737;52.386;9.980;2023-02-28T10:49:17;3.10;99.90
5429;DHT22;2737;52.386;9.980;2023-02-28T10:51:45;3.20;99.90
5429;DHT22;2737;52.386;9.980;2023-02-28T10:54:19;3.30;99.90
5429;DHT22;2737;52.386;9.980;2023-02-28T10:57:06;3.20;99.90
5429;DHT22;2737;52.386;9.980;2023-02-28T10:59:35;3.20;99.90
5429;DHT22;2737;52.386;9.980;2023-02-28T11:02:02;3.20;99.90
5429;DHT22;2737;52.386;9.980;2023-02-28T11:04:35;3.20;99.90
5429;DHT22;2737;52.386;9.980;2023-02-28T11:07:06;3.10;99.90
5429;DHT22;2737;52.386;9.980;2023-02-28T11:09:44;3.20;99.90
5429;DHT22;2737;52.386;9.980;2023-02-28T11:12:21;3.20;99.90
5429;DHT22;2737;52.386;9.980;2023-02-28T11:14:50;3.40;99.90
5429;DHT22;2737;52.386;9.980;2023-02-28T11:17:21;3.40;99.90
5429;DHT22;2737;52.386;9.980;2023-02-28T11:19:51;3.40;99.90
5429;DHT22;2737;52.386;9.980;2023-02-28T11:22:22;3.40;99.90
5429;DHT22;2737;52.386;9.980;2023-02-28T11:24:52;3.40;99.90
5429;DHT22;2737;52.386;9.980;2023-02-28T11:27:47;3.40;99.90
5429;DHT22;2737;52.386;9.980;2023-02-28T11:30:35;3.60;99.90
5429;DHT22;2737;52.386;9.980;2023-02-28T11:33:22;3.70;99.90
5429;DHT22;2737;52.386;9.980;2023-02-28T11:35:51;3.80;99.90
5429;DHT22;2737;52.386;9.980;2023-02-28T11:38:19;3.90;99.90
5429;DHT22;2737;52.386;9.980;2023-02-28T11:40:57;3.90;99.90
5429;DHT22;2737;52.386;9.980;2023-02-28T11:43:43;3.90;99.90
5429;DHT22;2737;52.386;9.980;2023-02-28T11:46:20;3.90;99.90
5429;DHT22;2737;52.386;9.980;2023-02-28T11:48:59;3.80;99.90
5429;DHT22;2737;52.386;9.980;2023-02-28T11:51:34;3.80;99.90
5429;DHT22;2737;52.386;9.980;2023-02-28T11:54:17;3.80;99.90
5429;DHT22;2737;52.386;9.980;2023-02-28T11:56:53;3.90;99.90
5429;DHT22;2737;52.386;9.980;2023-02-28T11:59:39;4.00;99.90
5429;DHT22;2737;52.386;9.980;2023-02-28T12:02:26;4.10;99.90
5429;DHT22;2737;52.386;9.980;2023-02-28T12:05:10;4.30;99.90
5429;DHT22;2737;52.386;9.980;2023-02-28T12:07:48;4.20;99.90
5429;DHT22;2737;52.386;9.980;2023-02-28T12:10:21;4.30;99.90
5429;DHT22;2737;52.386;9.980;2023-02-28T12:13:01;4.30;99.90
5429;DHT22;2737;52.386;9.980;2023-02-28T12:18:34;4.40;99.90
5429;DHT22;2737;52.386;9.980;2023-02-28T12:21:12;4.50;99.90
5429;DHT22;2737;52.386;9.980;2023-02-28T12:24:06;4.60;99.90
5429;DHT22;2737;52.386;9.980;2023-02-28T12:26:38;4.70;99.90
5429;DHT22;2737;52.386;9.980;2023-02-28T12:29:12;4.70;99.90
5429;DHT22;2737;52.386;9.980;2023-02-28T12:31:46;4.60;99.90
5429;DHT22;2737;52.386;9.980;2023-02-28T12:34:18;4.70;99.90
5429;DHT22;2737;52.386;9.980;2023-02-28T12:36:47;4.80;99.90
5429;DHT22;2737;52.386;9.980;2023-02-28T12:39:20;4.90;99.90
5429;DHT22;2737;52.386;9.980;2023-02-28T12:41:51;4.90;99.90
5429;DHT22;2737;52.386;9.980;2023-02-28T12:44:23;4.80;99.90
5429;DHT22;2737;52.386;9.980;2023-02-28T12:46:56;4.90;99.90
5429;DHT22;2737;52.386;9.980;2023-02-28T12:49:29;4.80;99.90
5429;DHT22;2737;52.386;9.980;2023-02-28T12:51:59;4.80;99.90
5429;DHT22;2737;52.386;9.980;2023-02-28T12:54:32;4.70;99.90
5429;DHT22;2737;52.386;9.980;2023-02-28T12:57:08;4.70;99.90
5429;DHT22;2737;52.386;9.980;2023-02-28T12:59:39;4.60;99.90
5429;DHT22;2737;52.386;9.980;2023-02-28T13:02:33;4.50;99.90
5429;DHT22;2737;52.386;9.980;2023-02-28T13:05:24;4.30;99.90
5429;DHT22;2737;52.386;9.980;2023-02-28T13:08:17;4.20;99.90
5429;DHT22;2737;52.386;9.980;2023-02-28T13:10:50;4.10;99.90
5429;DHT22;2737;52.386;9.980;2023-02-28T13:13:22;4.10;99.90
5429;DHT22;2737;52.386;9.980;2023-02-28T13:16:02;4.10;99.90
5429;DHT22;2737;52.386;9.980;2023-02-28T13:18:33;4.20;99.90
5429;DHT22;2737;52.386;9.980;2023-02-28T13:21:02;4.20;99.90
5429;DHT22;2737;52.386;9.980;2023-02-28T13:24:02;4.20;99.90
5429;DHT22;2737;52.386;9.980;2023-02-28T13:29:42;4.30;99.90
5429;DHT22;2737;52.386;9.980;2023-02-28T13:32:34;4.30;99.90
5429;DHT22;2737;52.386;9.980;2023-02-28T13:35:38;4.30;99.90
5429;DHT22;2737;52.386;9.980;2023-02-28T13:38:36;4.20;99.90
5429;DHT22;2737;52.386;9.980;2023-02-28T13:44:22;4.20;99.90
5429;DHT22;2737;52.386;9.980;2023-02-28T13:47:21;4.20;99.90
5429;DHT22;2737;52.386;9.980;2023-02-28T13:49:51;4.30;99.90
5429;DHT22;2737;52.386;9.980;2023-02-28T13:52:23;4.30;99.90
5429;DHT22;2737;52.386;9.980;2023-02-28T13:55:20;4.30;99.90
5429;DHT22;2737;52.386;9.980;2023-02-28T13:58:04;4.30;99.90
5429;DHT22;2737;52.386;9.980;2023-02-28T14:00:52;4.30;99.90
5429;DHT22;2737;52.386;9.980;2023-02-28T14:03:37;4.30;99.90
5429;DHT22;2737;52.386;9.980;2023-02-28T14:06:18;4.30;99.90
5429;DHT22;2737;52.386;9.980;2023-02-28T14:08:54;4.30;99.90
5429;DHT22;2737;52.386;9.980;2023-02-28T14:11:31;4.40;99.90
5429;DHT22;2737;52.386;9.980;2023-02-28T14:13:59;4.50;99.90
5429;DHT22;2737;52.386;9.980;2023-02-28T14:16:28;4.50;99.90
5429;DHT22;2737;52.386;9.980;2023-02-28T14:19:11;4.50;99.90
5429;DHT22;2737;52.386;9.980;2023-02-28T14:21:43;4.50;99.90
5429;DHT22;2737;52.386;9.980;2023-02-28T14:24:48;4.40;99.90
5429;DHT22;2737;52.386;9.980;2023-02-28T14:27:26;4.40;99.90
5429;DHT22;2737;52.386;9.980;2023-02-28T14:33:42;4.40;99.90
5429;DHT22;2737;52.386;9.980;2023-02-28T14:36:18;4.40;99.90
5429;DHT22;2737;52.386;9.980;2023-02-28T14:38:48;4.40;99.90
5429;DHT22;2737;52.386;9.980;2023-02-28T14:41:23;4.40;99.90
5429;DHT22;2737;52.386;9.980;2023-02-28T14:43:52;4.40;99.90
5429;DHT22;2737;52.386;9.980;2023-02-28T14:46:21;4.40;99.90
5429;DHT22;2737;52.386;9.980;2023-02-28T14:48:50;4.40;99.90
5429;DHT22;2737;52.386;9.980;2023-02-28T14:51:23;4.40;99.90
5429;DHT22;2737;52.386;9.980;2023-02-28T14:53:52;4.40;99.90
5429;DHT22;2737;52.386;9.980;2023-02-28T14:56:24;4.40;99.90
5429;DHT22;2737;52.386;9.980;2023-02-28T14:58:54;4.40;99.90
5429;DHT22;2737;52.386;9.980;2023-02-28T15:01:23;4.40;99.90
5429;DHT22;2737;52.386;9.980;2023-02-28T15:04:00;4.40;99.90
5429;DHT22;2737;52.386;9.980;2023-02-28T15:06:30;4.40;99.90
5429;DHT22;2737;52.386;9.980;2023-02-28T15:09:08;4.40;99.90
5429;DHT22;2737;52.386;9.980;2023-02-28T15:11:37;4.40;99.90
5429;DHT22;2737;52.386;9.980;2023-02-28T15:14:05;4.40;99.90
5429;DHT22;2737;52.386;9.980;2023-02-28T15:16:36;4.40;99.90
5429;DHT22;2737;52.386;9.980;2023-02-28T15:19:07;4.40;99.90
5429;DHT22;2737;52.386;9.980;2023-02-28T15:21:43;4.40;99.90
5429;DHT22;2737;52.386;9.980;2023-02-28T15:24:13;4.30;99.90
5429;DHT22;2737;52.386;9.980;2023-02-28T15:26:53;4.30;99.90
5429;DHT22;2737;52.386;9.980;2023-02-28T15:29:23;4.30;99.90
5429;DHT22;2737;52.386;9.980;2023-02-28T15:31:55;4.30;99.90
5429;DHT22;2737;52.386;9.980;2023-02-28T15:34:27;4.30;99.90
5429;DHT22;2737;52.386;9.980;2023-02-28T15:36:57;4.30;99.90
5429;DHT22;2737;52.386;9.980;2023-02-28T15:39:25;4.20;99.90
5429;DHT22;2737;52.386;9.980;2023-02-28T15:42:11;4.20;99.90
5429;DHT22;2737;52.386;9.980;2023-02-28T15:44:39;4.10;99.90
5429;DHT22;2737;52.386;9.980;2023-02-28T15:47:16;4.10;99.90
5429;DHT22;2737;52.386;9.980;2023-02-28T15:49:47;4.20;99.90
5429;DHT22;2737;52.386;9.980;2023-02-28T15:52:17;4.10;99.90
5429;DHT22;2737;52.386;9.980;2023-02-28T15:54:46;4.20;99.90
5429;DHT22;2737;52.386;9.980;2023-02-28T15:57:17;4.10;99.90
5429;DHT22;2737;52.386;9.980;2023-02-28T15:59:52;4.10;99.90
5429;DHT22;2737;52.386;9.980;2023-02-28T16:02:21;4.10;99.90
5429;DHT22;2737;52.386;9.980;2023-02-28T16:05:01;4.10;99.90
5429;DHT22;2737;52.386;9.980;2023-02-28T16:07:29;4.10;99.90
5429;DHT22;2737;52.386;9.980;2023-02-28T16:09:56;4.10;99.90
5429;DHT22;2737;52.386;9.980;2023-02-28T16:12:27;4.10;99.90
5429;DHT22;2737;52.386;9.980;2023-02-28T16:14:56;4.10;99.90
5429;DHT22;2737;52.386;9.980;2023-02-28T16:17:26;4.00;99.90
5429;DHT22;2737;52.386;9.980;2023-02-28T16:19:53;4.00;99.90
5429;DHT22;2737;52.386;9.980;2023-02-28T16:22:21;4.00;99.90
5429;DHT22;2737;52.386;9.980;2023-02-28T16:24:50;3.90;99.90
5429;DHT22;2737;52.386;9.980;2023-02-28T16:27:22;3.90;99.90
5429;DHT22;2737;52.386;9.980;2023-02-28T16:29:53;3.90;99.90
5429;DHT22;2737;52.386;9.980;2023-02-28T16:32:20;3.90;99.90
5429;DHT22;2737;52.386;9.980;2023-02-28T16:34:47;3.90;99.90
5429;DHT22;2737;52.386;9.980;2023-02-28T16:37:16;3.80;99.90
5429;DHT22;2737;52.386;9.980;2023-02-28T16:39:44;3.80;99.90
5429;DHT22;2737;52.386;9.980;2023-02-28T16:42:16;3.80;99.90
5429;DHT22;2737;52.386;9.980;2023-02-28T16:44:47;3.70;99.90
5429;DHT22;2737;52.386;9.980;2023-02-28T16:47:14;3.70;99.90
5429;DHT22;2737;52.386;9.980;2023-02-28T16:49:41;3.70;99.90
5429;DHT22;2737;52.386;9.980;2023-02-28T16:52:09;3.60;99.90
5429;DHT22;2737;52.386;9.980;2023-02-28T16:54:36;3.60;99.90
5429;DHT22;2737;52.386;9.980;2023-02-28T16:57:03;3.60;99.90